ADDS METAR Data INFO
IDs: Format: Raw Decoded Include TAF

Data at: 0212 UTC 17 Aug 2018

PABI 170153Z 24005KT 10SM FEW030 SCT045 BKN065 BKN180 09/02 A2990 RMK AO2 SLP135 SHRA DSNT ALQDS T00890017 PNO
PABI 170053Z 24005KT 10SM FEW030 SCT045 BKN065 BKN180 09/02 A2990 RMK RAB29E40 SLPNO T00890017 PNO VIA AUTODIAL
PABI 162353Z 36005KT 10SM FEW030 SCT045 BKN065 BKN180 15/09 A2990 RMK AO2 SLPNO SHRA DSNT NE AND SE-S-SW 6//// T01500094 10156 20117 56007
PABI 162253Z 22003KT 10SM FEW030 SCT045 BKN065 BKN180 15/09 A2990 RMK AO2 SLPNO SHRA DSNT N-NE AND SE-S-SW T01500094 PNO
PABI 162153Z 22006KT 10SM BKN045 BKN065 15/09 A2991 RMK AO2 RAE21 SLPNO PRESENT WX VCSH T01500094 PNO
PABI 162053Z 08006KT 10SM -RA BKN045 BKN065 BKN180 13/13 A2992 RMK AO2 RAB31 SLPNO 6//// T01330133 58003 PNO
PABI 161953Z 17003KT 10SM BKN045 BKN065 BKN180 16/09 A2992 RMK AO2 SLPNO SHRA VC E-S T01560089
PABI 161853Z 03003KT 10SM BKN045 BKN065 BKN180 12/08 A2993 RMK SLPNO SHRA DSNT E-S T01170078 PNO VIA AUTODIAL
PABI 161753Z 04003KT 10SM FEW005 SCT040 SCT065 BKN150 12/08 A2993 RMK AO2 RAE28 SLPNO SHRA VC SE-SW 6//// T01170083 50002 PNO
PABI 161653Z 15003KT 10SM -RA FEW003 SCT040 BKN080 BKN180 11/11 A2993 RMK AO2 SLP143 T01110106 PNO
PABI 161553Z 00000KT 10SM -RA FEW003 BKN040 BKN080 BKN130 10/10 A2993 RMK AO2 RAB41 SLP140 T01000100 PNO $
PABI 161453Z 00000KT 10SM FEW003 BKN040 BKN080 BKN130 09/08 A2992 RMK AO2 SLP139 SHRA DSNT SE-SW-W T00890078 57001 $
PABI 161353Z 00000KT 10SM FEW003 BKN040 OVC080 08/06 A2992 RMK AO2 SLP140 SHRA DSNT SE-SW-W T00830061 $
PABI 161253Z AUTO A2992 RMK AO2 SLPNO PWINO FZRANO TSNO $
PABI 161153Z AUTO A2992 RMK SLPNO 70004 54000 PWINO FZRANO TSNO $ VIA AUTODIAL
PABI 161053Z AUTO A2992 RMK AO2 SLPNO PWINO FZRANO TSNO $
PABI 160953Z AUTO A2992 RMK AO2 SLPNO PWINO FZRANO TSNO $
PABI 160853Z AUTO A2992 RMK AO2 SLPNO 401390089 52006 PWINO FZRANO TSNO $
PABI 160753Z AUTO A2991 RMK AO2 SLPNO PWINO FZRANO TSNO $
PABI 160653Z AUTO A2991 RMK AO2 SLPNO PWINO FZRANO TSNO $
PABI 160553Z AUTO A2990 RMK AO2 SLPNO 10139 20111 53004 PWINO FZRANO TSNO $
PABI 160453Z 27005KT 10SM SCT017 BKN036 OVC060 11/08 A2990 RMK AO2 SLP132 SHRA DSNT NE/S/SW/W BINOVC N/NW T01110078 $
PABI 160353Z 31005KT 10SM SCT017 BKN036 OVC060 13/09 A2989 RMK AO2 SLP130 SHRA DSNT S/SW/W T01280094 $
PABI 160253Z 30005KT 10SM SCT017 BKN036 BKN060 14/11 A2989 RMK AO2 SLP128 SHRA DSNT N/S/SW/W BINOVC T01390106 55005 $
PABI 160153Z 33005KT 10SM SCT017 BKN036 BKN050 13/10 A2989 RMK AO2 SLP128 SHRA N/SW/W T01330100 $
PABI 160053Z 33005KT 10SM SCT017 BKN036 OVC050 13/10 A2990 RMK AO2 SLP130 T01330100 $
PABI 152353Z 00000KT 10SM SCT017 BKN036 OVC050 12/09 A2991 RMK AO2 SLP134 T01220089 10128 20100 58004 $
PABI 152253Z VRB03KT 10SM SCT017 BKN036 OVC050 12/09 A2992 RMK AO2 SLP138 T01220089
PABI 152153Z 35003KT 10SM FEW018 OVC036 11/08 A2992 RMK AO2 SLP141 T01110083
PABI 152053Z 00000KT 10SM FEW015 OVC036 11/08 A2992 RMK AO2 SLP140 T01110083 51004
PABI 151953Z 36003KT 10SM FEW010 FEW016 OVC038 11/08 A2992 RMK AO2 SLP140 T01060083
PABI 151853Z 04003KT 10SM FEW011 BKN035 OVC043 11/08 A2992 RMK AO2 SLP139 T01060083
PABI 151753Z 09003KT 10SM SCT011 BKN031 OVC038 10/09 A2991 RMK AO2 SLP136 60004 T01000089 10100 20089 51008
PABI 151741Z 10003KT 10SM SCT008 OVC031 09/09 A2991 RMK AO2 T00940089
PABI 151717Z AUTO 14003KT 10SM SCT008 OVC028 09/09 A2991 RMK AO2 T00940089 TSNO
PABI 151653Z AUTO 00000KT 10SM OVC028 09/09 A2991 RMK AO2 SLP135 T00940089 TSNO
PABI 151553Z AUTO 01003KT 10SM OVC026 09/09 A2990 RMK AO2 SLP131 T00940089 TSNO
PABI 151521Z AUTO 01005KT 10SM FEW007 BKN027 OVC038 09/09 A2989 RMK AO2 T00940089 TSNO
PABI 151453Z AUTO 36004KT 10SM BKN024 OVC038 09/09 A2989 RMK RAE27 SLP128 P0000 60004 T00940094 52005 TSNO VIA AUTODIAL